Time;durP1;ratioP1;P1;durP2;ratioP2;P2;SDS_P1;SDS_P2;PMS_P1;PMS_P2;Temp;Humidity;BMP_temperature;BMP_pressure;BME280_temperature;BME280_humidity;BME280_pressure;Samples;Min_cycle;Max_cycle;Signal;HPM_P1;HPM_P2
2021/05/28 00:02:05;;;;;;;11.57;5.05;;;;;;;;;;5116400;28;20248;-74
2021/05/28 00:04:32;;;;;;;8.98;4.70;;;;;;;;;;5115976;28;20192;-74
2021/05/28 00:06:58;;;;;;;15.40;4.43;;;;;;;;;;5116305;28;20236;-74
2021/05/28 00:09:26;;;;;;;14.18;7.10;;;;;;;;;;5116218;28;20713;-74
2021/05/28 00:11:53;;;;;;;6.97;4.07;;;;;;;;;;5115852;28;20195;-74
2021/05/28 00:14:20;;;;;;;12.32;5.65;;;;;;;;;;5115944;28;20204;-74
2021/05/28 00:16:46;;;;;;;15.60;5.20;;;;;;;;;;5116337;28;20241;-74
2021/05/28 00:19:13;;;;;;;7.72;4.25;;;;;;;;;;5115948;28;20195;-74
2021/05/28 00:21:40;;;;;;;7.63;4.63;;;;;;;;;;5115520;28;20227;-74
2021/05/28 00:24:07;;;;;;;21.17;4.80;;;;;;;;;;5115810;28;20203;-74
2021/05/28 00:26:35;;;;;;;8.10;5.20;;;;;;;;;;5115514;28;20235;-74
2021/05/28 00:29:02;;;;;;;8.40;4.85;;;;;;;;;;5116083;28;20199;-74
2021/05/28 00:31:28;;;;;;;12.10;5.10;;;;;;;;;;5115457;28;20217;-74
2021/05/28 00:33:55;;;;;;;12.65;4.72;;;;;;;;;;5115141;28;20199;-74
2021/05/28 00:36:22;;;;;;;12.68;6.28;;;;;;;;;;5115485;28;20602;-74
2021/05/28 00:38:49;;;;;;;8.73;4.90;;;;;;;;;;5115218;28;20203;-75
2021/05/28 00:41:15;;;;;;;6.32;4.78;;;;;;;;;;5115669;28;20290;-74
2021/05/28 00:43:43;;;;;;;7.40;4.70;;;;;;;;;;5115188;28;20290;-74
2021/05/28 00:46:10;;;;;;;9.87;4.70;;;;;;;;;;5115286;28;20199;-74
2021/05/28 00:48:36;;;;;;;9.07;4.63;;;;;;;;;;5116148;28;20451;-72
2021/05/28 00:51:04;;;;;;;12.07;4.97;;;;;;;;;;5115442;28;20532;-73
2021/05/28 00:53:31;;;;;;;12.40;5.68;;;;;;;;;;5115299;28;20197;-72
2021/05/28 00:55:59;;;;;;;7.88;5.70;;;;;;;;;;5115845;28;20289;-72
2021/05/28 00:58:26;;;;;;;12.93;4.60;;;;;;;;;;5115418;28;20254;-75
2021/05/28 01:00:54;;;;;;;7.93;4.78;;;;;;;;;;5115208;28;20232;-74
2021/05/28 01:03:20;;;;;;;18.25;6.38;;;;;;;;;;5115082;28;20236;-74
2021/05/28 01:05:47;;;;;;;11.98;5.50;;;;;;;;;;5115028;28;20194;-73
2021/05/28 01:08:14;;;;;;;13.77;6.45;;;;;;;;;;5114696;28;20726;-73
2021/05/28 01:10:41;;;;;;;13.80;5.85;;;;;;;;;;5115007;28;20206;-73
2021/05/28 01:13:09;;;;;;;8.75;5.88;;;;;;;;;;5114862;28;20203;-73
2021/05/28 01:15:36;;;;;;;12.25;5.43;;;;;;;;;;5114884;28;20189;-72
2021/05/28 01:18:03;;;;;;;13.60;5.72;;;;;;;;;;5114530;28;20661;-74
2021/05/28 01:20:30;;;;;;;9.35;5.50;;;;;;;;;;5114381;28;20208;-74
2021/05/28 01:22:58;;;;;;;13.02;6.50;;;;;;;;;;5114768;28;20194;-74
2021/05/28 01:25:25;;;;;;;10.88;5.68;;;;;;;;;;5114482;28;20555;-73
2021/05/28 01:27:52;;;;;;;8.65;5.43;;;;;;;;;;5114073;28;20606;-74
2021/05/28 01:30:19;;;;;;;15.30;5.30;;;;;;;;;;5114300;28;20198;-74
2021/05/28 01:32:47;;;;;;;12.70;5.55;;;;;;;;;;5114900;28;20528;-73
2021/05/28 01:35:14;;;;;;;15.00;6.10;;;;;;;;;;5114521;28;20207;-73
2021/05/28 01:37:41;;;;;;;10.65;5.38;;;;;;;;;;5114401;28;20196;-72
2021/05/28 01:40:09;;;;;;;13.50;6.78;;;;;;;;;;5114547;28;20219;-72
2021/05/28 01:42:36;;;;;;;11.10;6.28;;;;;;;;;;5114081;28;20198;-72
2021/05/28 01:45:04;;;;;;;19.17;6.43;;;;;;;;;;5114082;28;20217;-72
2021/05/28 01:47:31;;;;;;;14.23;6.32;;;;;;;;;;5114303;28;20193;-73
2021/05/28 01:49:58;;;;;;;9.90;6.18;;;;;;;;;;5114940;28;20543;-72
2021/05/28 01:52:24;;;;;;;10.95;6.32;;;;;;;;;;5114241;28;20199;-73
2021/05/28 01:54:51;;;;;;;22.92;7.18;;;;;;;;;;5114169;28;20196;-73
2021/05/28 01:57:19;;;;;;;15.15;6.60;;;;;;;;;;5114182;28;20549;-73
2021/05/28 01:59:46;;;;;;;10.75;6.50;;;;;;;;;;5113991;28;20212;-72
2021/05/28 02:02:13;;;;;;;15.38;7.32;;;;;;;;;;5113736;28;20706;-72
2021/05/28 02:04:39;;;;;;;10.18;6.40;;;;;;;;;;5113751;28;20673;-74
2021/05/28 02:07:06;;;;;;;13.73;6.40;;;;;;;;;;5113919;28;20201;-73
2021/05/28 02:09:33;;;;;;;13.57;9.20;;;;;;;;;;5113558;28;20201;-73
2021/05/28 02:12:01;;;;;;;11.70;7.05;;;;;;;;;;5114086;28;20219;-73
2021/05/28 02:14:29;;;;;;;8.85;5.95;;;;;;;;;;5113594;28;20194;-73
2021/05/28 02:16:56;;;;;;;10.07;6.60;;;;;;;;;;5113829;28;20195;-73
2021/05/28 02:19:23;;;;;;;12.85;6.15;;;;;;;;;;5113470;28;20203;-73
2021/05/28 02:21:51;;;;;;;9.32;6.20;;;;;;;;;;5113988;28;20584;-73
2021/05/28 02:24:18;;;;;;;14.65;6.78;;;;;;;;;;5113784;28;20202;-73
2021/05/28 02:26:45;;;;;;;11.60;7.75;;;;;;;;;;5113750;28;20295;-73
2021/05/28 02:29:12;;;;;;;18.70;8.27;;;;;;;;;;5114275;28;20195;-73
2021/05/28 02:31:40;;;;;;;18.80;7.18;;;;;;;;;;5113801;28;20620;-73
2021/05/28 02:34:07;;;;;;;12.05;7.28;;;;;;;;;;5113705;28;20196;-73
2021/05/28 02:36:33;;;;;;;20.85;7.60;;;;;;;;;;5114276;28;20210;-73
2021/05/28 02:39:00;;;;;;;9.45;7.57;;;;;;;;;;5115544;28;20199;-73
2021/05/28 02:41:27;;;;;;;9.43;7.88;;;;;;;;;;5117789;28;20617;-72
2021/05/28 02:43:54;;;;;;;11.68;7.38;;;;;;;;;;5117565;28;20682;-73
2021/05/28 02:46:20;;;;;;;14.07;8.02;;;;;;;;;;5117888;28;20220;-74
2021/05/28 02:48:48;;;;;;;26.95;8.45;;;;;;;;;;5117713;28;20254;-73
2021/05/28 02:51:15;;;;;;;14.77;8.10;;;;;;;;;;5118432;28;20210;-74
2021/05/28 02:53:41;;;;;;;18.73;8.05;;;;;;;;;;5117707;28;20557;-73
2021/05/28 02:56:08;;;;;;;18.60;9.00;;;;;;;;;;5117586;28;20190;-73
2021/05/28 02:58:35;;;;;;;18.83;9.13;;;;;;;;;;5118023;28;20286;-75
2021/05/28 03:01:01;;;;;;;19.13;9.18;;;;;;;;;;5117146;28;20690;-74
2021/05/28 03:03:28;;;;;;;14.50;9.60;;;;;;;;;;5117410;28;20193;-73
2021/05/28 03:05:56;;;;;;;21.52;10.63;;;;;;;;;;5117391;28;20597;-73
2021/05/28 03:08:22;;;;;;;15.30;9.45;;;;;;;;;;5117405;28;20246;-72
2021/05/28 03:10:49;;;;;;;12.10;9.68;;;;;;;;;;5117253;28;20290;-72
2021/05/28 03:13:16;;;;;;;16.27;10.13;;;;;;;;;;5117057;28;20774;-72
2021/05/28 03:15:43;;;;;;;20.92;12.40;;;;;;;;;;5117986;28;20193;-72
2021/05/28 03:18:15;;;;;;;21.38;11.73;;;;;;;;;;5116865;28;20648;-73
2021/05/28 03:20:46;;;;;;;14.57;11.82;;;;;;;;;;5116925;28;20674;-73
2021/05/28 03:23:13;;;;;;;19.00;12.80;;;;;;;;;;5117447;28;20239;-73
2021/05/28 03:25:40;;;;;;;27.65;12.90;;;;;;;;;;5116870;28;20195;-73
2021/05/28 03:28:07;;;;;;;24.48;14.20;;;;;;;;;;5116708;28;20194;-73
2021/05/28 03:30:34;;;;;;;25.05;13.07;;;;;;;;;;5117184;28;20202;-73
2021/05/28 03:33:01;;;;;;;23.58;13.10;;;;;;;;;;5116418;28;20197;-73
2021/05/28 03:35:27;;;;;;;27.48;13.80;;;;;;;;;;5117296;28;20305;-73
2021/05/28 03:37:54;;;;;;;22.30;13.77;;;;;;;;;;5116952;28;20258;-75
2021/05/28 03:40:22;;;;;;;16.00;14.25;;;;;;;;;;5117104;28;20735;-72
2021/05/28 03:42:48;;;;;;;21.42;14.77;;;;;;;;;;5116308;28;20197;-72
2021/05/28 03:45:15;;;;;;;25.70;16.80;;;;;;;;;;5116356;28;20195;-72
2021/05/28 03:47:42;;;;;;;22.27;14.82;;;;;;;;;;5116548;28;20283;-72
2021/05/28 03:50:09;;;;;;;23.85;13.93;;;;;;;;;;5115967;28;20277;-72
2021/05/28 03:52:36;;;;;;;22.40;16.17;;;;;;;;;;5116128;28;20274;-72
2021/05/28 03:55:03;;;;;;;24.73;15.52;;;;;;;;;;5116373;28;20306;-72
2021/05/28 03:57:31;;;;;;;24.08;17.05;;;;;;;;;;5116348;28;20193;-73
2021/05/28 03:59:57;;;;;;;20.65;15.85;;;;;;;;;;5116597;28;20575;-72
2021/05/28 04:02:24;;;;;;;21.02;16.50;;;;;;;;;;5116932;28;20543;-73
2021/05/28 04:04:51;;;;;;;25.30;17.60;;;;;;;;;;5116328;28;20291;-73
2021/05/28 04:07:18;;;;;;;23.13;16.95;;;;;;;;;;5116110;28;20552;-72
2021/05/28 04:09:44;;;;;;;29.60;17.77;;;;;;;;;;5115828;28;20209;-73
2021/05/28 04:12:11;;;;;;;18.80;16.35;;;;;;;;;;5115742;28;20198;-70
2021/05/28 04:14:39;;;;;;;23.23;16.33;;;;;;;;;;5116068;28;20195;-70
2021/05/28 04:17:05;;;;;;;25.50;18.02;;;;;;;;;;5115629;28;20208;-70
2021/05/28 04:19:32;;;;;;;27.65;16.08;;;;;;;;;;5115990;28;20198;-70
2021/05/28 04:21:59;;;;;;;20.10;15.68;;;;;;;;;;5116301;28;20222;-71
2021/05/28 04:24:26;;;;;;;19.75;16.25;;;;;;;;;;5115572;28;20332;-71
2021/05/28 04:26:52;;;;;;;28.38;15.32;;;;;;;;;;5115783;28;20228;-70
2021/05/28 04:29:20;;;;;;;38.55;17.48;;;;;;;;;;5124697;27;20197;-70
2021/05/28 04:31:48;;;;;;;24.20;16.17;;;;;;;;;;5120668;27;20209;-71
2021/05/28 04:34:14;;;;;;;38.80;17.90;;;;;;;;;;5115344;28;20234;-71
2021/05/28 04:36:41;;;;;;;32.38;17.33;;;;;;;;;;5115253;28;20234;-70
2021/05/28 04:39:08;;;;;;;29.67;16.50;;;;;;;;;;5115718;28;20289;-70
2021/05/28 04:41:35;;;;;;;22.85;15.93;;;;;;;;;;5116061;28;20299;-71
2021/05/28 04:44:01;;;;;;;64.22;19.20;;;;;;;;;;5116076;28;20270;-70
2021/05/28 04:46:28;;;;;;;31.85;17.10;;;;;;;;;;5115935;28;20194;-70
2021/05/28 04:48:56;;;;;;;39.50;18.27;;;;;;;;;;5115273;28;20194;-70
2021/05/28 04:51:22;;;;;;;23.65;17.40;;;;;;;;;;5115871;28;20230;-72
2021/05/28 04:53:49;;;;;;;22.20;17.70;;;;;;;;;;5115623;28;20282;-70
2021/05/28 04:56:17;;;;;;;25.45;15.63;;;;;;;;;;5115596;28;20291;-70
2021/05/28 04:58:44;;;;;;;22.48;17.15;;;;;;;;;;5115369;28;20229;-70
2021/05/28 05:01:11;;;;;;;19.77;16.55;;;;;;;;;;5114064;28;20217;-70
2021/05/28 05:03:37;;;;;;;23.98;15.52;;;;;;;;;;5115414;28;20220;-70
2021/05/28 05:06:06;;;;;;;27.60;16.60;;;;;;;;;;5115325;28;20286;-70
2021/05/28 05:08:33;;;;;;;28.95;18.85;;;;;;;;;;5114803;28;20191;-71
2021/05/28 05:10:59;;;;;;;25.35;18.58;;;;;;;;;;5115247;28;20285;-71
2021/05/28 05:13:26;;;;;;;20.80;17.63;;;;;;;;;;5115297;28;20201;-78
2021/05/28 05:15:53;;;;;;;25.92;17.65;;;;;;;;;;5115127;28;20234;-74
2021/05/28 05:18:20;;;;;;;24.75;17.17;;;;;;;;;;5114735;28;20275;-73
2021/05/28 05:20:46;;;;;;;21.20;16.70;;;;;;;;;;5114493;28;20302;-73
2021/05/28 05:23:14;;;;;;;20.05;17.02;;;;;;;;;;5114933;28;20252;-74
2021/05/28 05:25:41;;;;;;;22.30;15.65;;;;;;;;;;5114725;28;20200;-73
2021/05/28 05:28:07;;;;;;;20.33;16.50;;;;;;;;;;5114605;28;20185;-73
2021/05/28 05:30:34;;;;;;;15.80;14.10;;;;;;;;;;5114930;28;20231;-74
2021/05/28 05:33:01;;;;;;;20.90;15.68;;;;;;;;;;5114767;28;20333;-74
2021/05/28 05:35:27;;;;;;;17.10;14.60;;;;;;;;;;5114327;28;20194;-74
2021/05/28 05:37:54;;;;;;;22.00;14.73;;;;;;;;;;5115020;28;20310;-74
2021/05/28 05:40:22;;;;;;;18.23;14.85;;;;;;;;;;5114551;28;20203;-74
2021/05/28 05:42:49;;;;;;;15.73;13.95;;;;;;;;;;5117629;28;20201;-74
2021/05/28 05:45:16;;;;;;;16.92;14.05;;;;;;;;;;5118316;28;20188;-75
2021/05/28 05:47:43;;;;;;;16.67;14.95;;;;;;;;;;5115768;28;20194;-74
2021/05/28 05:50:11;;;;;;;16.33;13.07;;;;;;;;;;5115059;28;20197;-74
2021/05/28 05:52:38;;;;;;;14.75;13.25;;;;;;;;;;5115066;28;20191;-74
2021/05/28 05:55:05;;;;;;;14.77;12.93;;;;;;;;;;5117643;28;20609;-73
2021/05/28 05:57:33;;;;;;;16.13;13.70;;;;;;;;;;5116190;28;20282;-73
2021/05/28 05:59:59;;;;;;;18.88;14.00;;;;;;;;;;5114332;28;20202;-73
2021/05/28 06:02:27;;;;;;;18.00;16.08;;;;;;;;;;5114355;28;20220;-73
2021/05/28 06:04:53;;;;;;;20.98;15.48;;;;;;;;;;5114975;28;20570;-73
2021/05/28 06:07:20;;;;;;;17.83;14.82;;;;;;;;;;5114069;28;20198;-74
2021/05/28 06:09:47;;;;;;;23.27;14.27;;;;;;;;;;5114399;28;20225;-74
2021/05/28 06:12:14;;;;;;;17.50;13.55;;;;;;;;;;5113632;28;20290;-73
2021/05/28 06:14:41;;;;;;;17.58;14.63;;;;;;;;;;5114195;28;20195;-73
2021/05/28 06:17:08;;;;;;;17.60;14.95;;;;;;;;;;5114147;28;20190;-73
2021/05/28 06:19:34;;;;;;;18.48;13.90;;;;;;;;;;5114035;28;20290;-74
2021/05/28 06:22:01;;;;;;;18.45;14.55;;;;;;;;;;5113711;28;20220;-74
2021/05/28 06:24:28;;;;;;;17.20;14.20;;;;;;;;;;5113757;28;20201;-74
2021/05/28 06:26:54;;;;;;;14.80;12.48;;;;;;;;;;5114150;28;20683;-74
2021/05/28 06:29:21;;;;;;;13.80;12.13;;;;;;;;;;5114080;28;20284;-75
2021/05/28 06:31:49;;;;;;;14.32;12.85;;;;;;;;;;5113981;28;20201;-74
2021/05/28 06:34:15;;;;;;;14.02;12.10;;;;;;;;;;5114549;28;20566;-74
2021/05/28 06:36:42;;;;;;;13.00;11.57;;;;;;;;;;5113781;28;20190;-74
2021/05/28 06:39:10;;;;;;;12.88;11.00;;;;;;;;;;5113969;28;20222;-74
2021/05/28 06:41:37;;;;;;;13.10;11.13;;;;;;;;;;5113544;28;20213;-74
2021/05/28 06:44:05;;;;;;;12.38;11.00;;;;;;;;;;5113554;28;20194;-75
2021/05/28 06:46:31;;;;;;;13.27;11.60;;;;;;;;;;5113575;28;20204;-74
2021/05/28 06:48:59;;;;;;;15.85;11.10;;;;;;;;;;5114115;28;20204;-74
2021/05/28 06:51:26;;;;;;;12.35;11.15;;;;;;;;;;5114181;28;20195;-73
2021/05/28 06:53:52;;;;;;;14.43;12.68;;;;;;;;;;5113974;28;20282;-74
2021/05/28 06:56:19;;;;;;;17.58;12.52;;;;;;;;;;5113787;28;20195;-74
2021/05/28 06:58:48;;;;;;;12.85;11.02;;;;;;;;;;5113390;28;20194;-74
2021/05/28 07:01:15;;;;;;;16.50;11.48;;;;;;;;;;5113669;28;20259;-74
2021/05/28 07:03:42;;;;;;;12.43;11.20;;;;;;;;;;5114104;28;20285;-74
2021/05/28 07:06:10;;;;;;;14.70;11.68;;;;;;;;;;5113319;28;20190;-74
2021/05/28 07:08:36;;;;;;;13.57;12.18;;;;;;;;;;5113827;28;20604;-74
2021/05/28 07:11:03;;;;;;;12.40;11.20;;;;;;;;;;5113657;28;20206;-73
2021/05/28 07:13:30;;;;;;;13.00;10.07;;;;;;;;;;5113592;28;20197;-73
2021/05/28 07:15:57;;;;;;;10.50;9.45;;;;;;;;;;5113640;28;20204;-73
2021/05/28 07:18:23;;;;;;;10.20;9.20;;;;;;;;;;5113241;28;20795;-73
2021/05/28 07:20:50;;;;;;;15.63;11.15;;;;;;;;;;5113191;28;20251;-74
2021/05/28 07:23:21;;;;;;;12.85;10.52;;;;;;;;;;5113467;28;20200;-73
2021/05/28 07:25:48;;;;;;;10.70;9.60;;;;;;;;;;5116978;28;20228;-74
2021/05/28 07:28:15;;;;;;;11.18;10.05;;;;;;;;;;5116976;28;20185;-74
2021/05/28 07:30:42;;;;;;;11.03;10.00;;;;;;;;;;5117096;28;20233;-74
2021/05/28 07:33:08;;;;;;;10.95;9.95;;;;;;;;;;5117105;28;20449;-74
2021/05/28 07:35:36;;;;;;;11.00;10.03;;;;;;;;;;5117173;28;20301;-74
2021/05/28 07:38:02;;;;;;;12.73;10.60;;;;;;;;;;5117063;28;20540;-74
2021/05/28 07:40:30;;;;;;;12.02;10.15;;;;;;;;;;5116734;28;20660;-74
2021/05/28 07:42:57;;;;;;;11.23;10.13;;;;;;;;;;5116990;28;20612;-74
2021/05/28 07:45:24;;;;;;;12.23;10.20;;;;;;;;;;5116876;28;20451;-75
2021/05/28 07:47:51;;;;;;;11.65;10.45;;;;;;;;;;5116600;28;20971;-73
2021/05/28 07:50:17;;;;;;;10.88;9.77;;;;;;;;;;5116447;28;20252;-73
2021/05/28 07:52:44;;;;;;;11.73;10.55;;;;;;;;;;5116727;28;20207;-73
2021/05/28 07:55:11;;;;;;;10.60;9.50;;;;;;;;;;5116669;28;20206;-73
2021/05/28 07:57:39;;;;;;;11.77;10.68;;;;;;;;;;5116705;28;20431;-75
2021/05/28 08:00:07;;;;;;;11.10;10.00;;;;;;;;;;5116275;28;20675;-74
2021/05/28 08:02:34;;;;;;;13.93;11.13;;;;;;;;;;5116532;28;20226;-74
2021/05/28 08:05:00;;;;;;;16.48;11.43;;;;;;;;;;5116155;28;20290;-74
2021/05/28 08:07:27;;;;;;;10.68;9.40;;;;;;;;;;5116867;28;20279;-73
2021/05/28 08:09:54;;;;;;;11.52;9.45;;;;;;;;;;5116797;28;20682;-73
2021/05/28 08:12:21;;;;;;;9.68;8.77;;;;;;;;;;5116428;28;20206;-74
2021/05/28 08:14:48;;;;;;;10.00;8.05;;;;;;;;;;5116740;28;20218;-73
2021/05/28 08:17:15;;;;;;;12.90;8.60;;;;;;;;;;5116204;28;20283;-74
2021/05/28 08:19:43;;;;;;;9.48;8.57;;;;;;;;;;5116183;28;20446;-73
2021/05/28 08:22:10;;;;;;;9.35;8.48;;;;;;;;;;5116089;28;20216;-73
2021/05/28 08:24:37;;;;;;;9.18;8.00;;;;;;;;;;5116143;28;20193;-74
2021/05/28 08:27:04;;;;;;;10.57;9.47;;;;;;;;;;5115972;28;20233;-74
2021/05/28 08:29:30;;;;;;;9.30;8.32;;;;;;;;;;5115948;28;20449;-74
2021/05/28 08:31:58;;;;;;;9.68;8.77;;;;;;;;;;5116028;28;20305;-74
2021/05/28 08:34:25;;;;;;;10.70;9.80;;;;;;;;;;5116553;28;20329;-73
2021/05/28 08:36:51;;;;;;;10.03;9.03;;;;;;;;;;5115704;28;20198;-75
2021/05/28 08:39:20;;;;;;;9.43;8.53;;;;;;;;;;5115494;28;20438;-75
2021/05/28 08:41:47;;;;;;;9.00;8.07;;;;;;;;;;5115578;28;21030;-74
2021/05/28 08:44:21;;;;;;;10.30;9.40;;;;;;;;;;5115734;28;20568;-74
2021/05/28 08:46:48;;;;;;;9.13;7.70;;;;;;;;;;5116016;28;20188;-73
2021/05/28 08:49:16;;;;;;;11.57;9.02;;;;;;;;;;5116361;28;20508;-75
2021/05/28 08:51:43;;;;;;;10.77;9.75;;;;;;;;;;5115669;28;20206;-74
2021/05/28 08:54:10;;;;;;;12.63;8.97;;;;;;;;;;5115764;28;20220;-74
2021/05/28 08:56:37;;;;;;;9.85;8.85;;;;;;;;;;5115337;28;20446;-74
2021/05/28 08:59:04;;;;;;;9.10;8.20;;;;;;;;;;5115198;28;20197;-74
2021/05/28 09:01:31;;;;;;;8.68;7.85;;;;;;;;;;5115797;28;20514;-75
2021/05/28 09:03:58;;;;;;;9.52;8.75;;;;;;;;;;5116046;28;20205;-73
2021/05/28 09:06:36;;;;;;;14.50;8.70;;;;;;;;;;5115998;28;20237;-75
2021/05/28 09:09:10;;;;;;;10.13;9.13;;;;;;;;;;5115549;28;20261;-74
2021/05/28 09:11:50;;;;;;;9.10;8.20;;;;;;;;;;5116446;28;20473;-74
2021/05/28 09:14:29;;;;;;;10.10;9.10;;;;;;;;;;5116168;28;20422;-74
2021/05/28 09:16:55;;;;;;;9.30;8.40;;;;;;;;;;5115669;28;20487;-74
2021/05/28 09:19:23;;;;;;;9.97;9.07;;;;;;;;;;5115430;28;20931;-75
2021/05/28 09:21:56;;;;;;;10.13;9.23;;;;;;;;;;5117374;28;20868;-74
2021/05/28 09:24:27;;;;;;;8.93;8.03;;;;;;;;;;5115709;28;20753;-74
2021/05/28 09:26:54;;;;;;;8.57;7.50;;;;;;;;;;5114502;28;21067;-74
2021/05/28 09:29:21;;;;;;;11.20;8.23;;;;;;;;;;5114248;28;20530;-74
2021/05/28 09:31:47;;;;;;;7.90;7.20;;;;;;;;;;5114344;28;20439;-74
2021/05/28 09:34:27;;;;;;;12.73;8.13;;;;;;;;;;5114903;28;21008;-75
2021/05/28 09:36:53;;;;;;;8.20;7.30;;;;;;;;;;5114288;28;20519;-74
2021/05/28 09:39:21;;;;;;;11.73;7.90;;;;;;;;;;5114945;28;20474;-75
2021/05/28 09:41:49;;;;;;;8.87;7.57;;;;;;;;;;5114120;28;20573;-75
2021/05/28 09:44:17;;;;;;;7.97;7.17;;;;;;;;;;5116312;28;20439;-74
2021/05/28 09:47:02;;;;;;;7.97;7.17;;;;;;;;;;5114157;28;20525;-74
2021/05/28 09:49:30;;;;;;;8.00;7.30;;;;;;;;;;5114348;28;20525;-74
2021/05/28 09:52:04;;;;;;;7.30;6.60;;;;;;;;;;5113793;28;20927;-73
2021/05/28 09:54:31;;;;;;;9.83;7.70;;;;;;;;;;5114491;28;20434;-75
2021/05/28 09:56:58;;;;;;;7.80;7.07;;;;;;;;;;5114166;28;20522;-74
2021/05/28 09:59:25;;;;;;;8.90;8.10;;;;;;;;;;5114352;28;20458;-75
2021/05/28 10:01:56;;;;;;;8.40;7.50;;;;;;;;;;5113683;28;20535;-74
2021/05/28 10:04:23;;;;;;;9.57;8.33;;;;;;;;;;5114293;28;20845;-74
2021/05/28 10:06:50;;;;;;;10.30;9.30;;;;;;;;;;5114017;28;20441;-74
2021/05/28 10:09:17;;;;;;;12.93;8.17;;;;;;;;;;5114028;28;20497;-74
2021/05/28 10:11:45;;;;;;;7.40;6.70;;;;;;;;;;5113877;28;20454;-74
2021/05/28 10:14:12;;;;;;;7.00;6.30;;;;;;;;;;5113728;28;20431;-74
2021/05/28 10:16:39;;;;;;;9.13;8.20;;;;;;;;;;5113827;28;20442;-74
2021/05/28 10:19:06;;;;;;;8.07;7.27;;;;;;;;;;5113821;28;20443;-75
2021/05/28 10:21:33;;;;;;;5.90;5.40;;;;;;;;;;5113740;28;20491;-73
2021/05/28 10:24:00;;;;;;;6.40;5.83;;;;;;;;;;5113696;28;20613;-74
2021/05/28 10:26:28;;;;;;;6.73;6.13;;;;;;;;;;5113858;28;20566;-74
2021/05/28 10:28:56;;;;;;;7.30;6.63;;;;;;;;;;5113595;28;20562;-74
2021/05/28 10:31:38;;;;;;;12.70;10.70;;;;;;;;;;5113775;28;20474;-74
2021/05/28 10:34:05;;;;;;;7.73;7.03;;;;;;;;;;5112915;28;20443;-74
2021/05/28 10:36:41;;;;;;;6.33;5.83;;;;;;;;;;5113285;28;20434;-74
2021/05/28 10:39:09;;;;;;;13.30;7.47;;;;;;;;;;5115862;28;20438;-75
2021/05/28 10:41:39;;;;;;;7.73;6.93;;;;;;;;;;5115602;28;20561;-74
2021/05/28 10:44:08;;;;;;;7.50;6.70;;;;;;;;;;5114205;28;20438;-74
2021/05/28 10:46:36;;;;;;;8.33;6.20;;;;;;;;;;5113881;28;20526;-73
2021/05/28 10:49:07;;;;;;;9.13;7.37;;;;;;;;;;5113727;28;20471;-75
2021/05/28 10:51:53;;;;;;;7.83;5.50;;;;;;;;;;5114639;28;20444;-75
2021/05/28 10:54:26;;;;;;;8.20;7.40;;;;;;;;;;5113600;28;20443;-75
2021/05/28 10:56:53;;;;;;;8.70;7.10;;;;;;;;;;5113602;28;20482;-75
2021/05/28 10:59:22;;;;;;;7.00;6.37;;;;;;;;;;5114751;28;20474;-74
2021/05/28 11:01:52;;;;;;;6.40;5.80;;;;;;;;;;5117105;28;20474;-74
2021/05/28 11:04:23;;;;;;;6.63;5.17;;;;;;;;;;5117555;28;20432;-74
2021/05/28 11:07:14;;;;;;;5.40;4.90;;;;;;;;;;5117915;28;20435;-74
2021/05/28 11:09:41;;;;;;;5.10;4.67;;;;;;;;;;5117272;28;20420;-74
2021/05/28 11:12:17;;;;;;;6.37;5.20;;;;;;;;;;5117046;28;20533;-74
2021/05/28 11:15:00;;;;;;;6.10;5.53;;;;;;;;;;5117161;28;20437;-74
2021/05/28 11:17:27;;;;;;;5.83;5.30;;;;;;;;;;5117207;28;20472;-74
2021/05/28 11:19:56;;;;;;;5.23;4.80;;;;;;;;;;5117130;28;20449;-73
2021/05/28 11:22:29;;;;;;;7.17;4.93;;;;;;;;;;5116932;28;20482;-74
2021/05/28 11:24:57;;;;;;;4.40;4.00;;;;;;;;;;5117788;28;21006;-74
2021/05/28 11:27:41;;;;;;;3.30;3.10;;;;;;;;;;5117594;28;20482;-74
2021/05/28 11:30:23;;;;;;;6.10;4.10;;;;;;;;;;5117123;28;20491;-74
2021/05/28 11:32:49;;;;;;;4.80;4.40;;;;;;;;;;5117865;28;20439;-73
2021/05/28 11:35:17;;;;;;;4.70;4.30;;;;;;;;;;5117086;28;20444;-74
2021/05/28 11:37:45;;;;;;;4.57;3.67;;;;;;;;;;5117521;28;20438;-73
2021/05/28 11:40:13;;;;;;;4.83;4.03;;;;;;;;;;5117065;28;20902;-73
2021/05/28 11:42:40;;;;;;;4.20;3.30;;;;;;;;;;5116872;28;20828;-73
2021/05/28 11:45:08;;;;;;;4.77;3.37;;;;;;;;;;5117398;28;20450;-77
2021/05/28 11:47:37;;;;;;;4.47;4.07;;;;;;;;;;5116875;28;20441;-71
2021/05/28 11:50:05;;;;;;;4.07;3.70;;;;;;;;;;5116448;28;20474;-70
2021/05/28 11:52:32;;;;;;;4.07;3.77;;;;;;;;;;5116337;28;20530;-71
2021/05/28 11:55:05;;;;;;;4.00;3.70;;;;;;;;;;5116781;28;20431;-72
2021/05/28 11:57:32;;;;;;;5.20;3.90;;;;;;;;;;5116428;28;20446;-71
2021/05/28 11:59:59;;;;;;;4.80;4.40;;;;;;;;;;5116308;28;20447;-76
2021/05/28 12:02:47;;;;;;;4.57;4.13;;;;;;;;;;5117115;28;20479;-74
2021/05/28 12:05:19;;;;;;;11.10;8.63;;;;;;;;;;5110244;28;20918;-73
2021/05/28 12:07:47;;;;;;;4.90;3.87;;;;;;;;;;5122033;27;20457;-73
2021/05/28 12:10:14;;;;;;;5.50;4.00;;;;;;;;;;5121009;27;20445;-72
2021/05/28 12:12:51;;;;;;;4.30;3.90;;;;;;;;;;5116316;28;20977;-74
2021/05/28 12:15:18;;;;;;;7.67;4.80;;;;;;;;;;5116050;28;20436;-73
2021/05/28 12:17:45;;;;;;;7.53;5.07;;;;;;;;;;5115859;28;20445;-71
2021/05/28 12:20:20;;;;;;;4.37;3.83;;;;;;;;;;5116779;28;20465;-71
2021/05/28 12:22:57;;;;;;;5.97;5.37;;;;;;;;;;5116051;28;20465;-73
2021/05/28 12:25:24;;;;;;;4.60;4.20;;;;;;;;;;5115940;28;20531;-72
2021/05/28 12:27:51;;;;;;;5.53;3.77;;;;;;;;;;5115628;28;20469;-73
2021/05/28 12:30:23;;;;;;;4.20;3.80;;;;;;;;;;5115580;28;20446;-73
2021/05/28 12:32:50;;;;;;;3.27;2.90;;;;;;;;;;5116027;28;20423;-72
2021/05/28 12:35:17;;;;;;;2.63;2.43;;;;;;;;;;5116004;28;20439;-73
2021/05/28 12:37:58;;;;;;;3.50;3.10;;;;;;;;;;5115394;28;20531;-72
2021/05/28 12:40:27;;;;;;;2.77;2.57;;;;;;;;;;5115276;28;20447;-73
2021/05/28 12:42:57;;;;;;;3.93;3.30;;;;;;;;;;5115392;28;20555;-74
2021/05/28 12:45:33;;;;;;;2.77;2.67;;;;;;;;;;5115739;28;20877;-73
2021/05/28 12:47:59;;;;;;;3.57;3.27;;;;;;;;;;5115504;28;20433;-73
2021/05/28 12:50:32;;;;;;;4.17;3.70;;;;;;;;;;5115735;28;20441;-74
2021/05/28 12:52:59;;;;;;;3.77;3.47;;;;;;;;;;5115612;28;20529;-74
2021/05/28 12:55:31;;;;;;;5.00;3.70;;;;;;;;;;5115188;28;20442;-74
2021/05/28 12:57:58;;;;;;;5.30;3.10;;;;;;;;;;5115001;28;20473;-73
2021/05/28 13:00:32;;;;;;;3.70;3.37;;;;;;;;;;5115094;28;20917;-73
2021/05/28 13:02:59;;;;;;;4.50;4.10;;;;;;;;;;5115509;28;20581;-72
2021/05/28 13:05:35;;;;;;;4.47;3.57;;;;;;;;;;5115563;28;20531;-73
2021/05/28 13:08:03;;;;;;;2.60;2.40;;;;;;;;;;5115341;28;20539;-73
2021/05/28 13:10:31;;;;;;;2.70;2.50;;;;;;;;;;5115183;28;20440;-71
2021/05/28 13:13:18;;;;;;;2.77;2.57;;;;;;;;;;5115139;28;20527;-72
2021/05/28 13:15:45;;;;;;;5.70;3.03;;;;;;;;;;5115169;28;20477;-71
2021/05/28 13:18:14;;;;;;;3.40;3.10;;;;;;;;;;5115175;28;20447;-72
2021/05/28 13:20:43;;;;;;;3.30;3.00;;;;;;;;;;5114753;28;20482;-72
2021/05/28 13:23:20;;;;;;;2.90;2.60;;;;;;;;;;5113825;28;20505;-73
2021/05/28 13:25:48;;;;;;;2.73;2.57;;;;;;;;;;5114688;28;20513;-72
2021/05/28 13:28:16;;;;;;;3.47;3.17;;;;;;;;;;5115148;28;20426;-73
2021/05/28 13:30:43;;;;;;;4.20;3.87;;;;;;;;;;5115230;28;20807;-72
2021/05/28 13:33:21;;;;;;;3.60;3.30;;;;;;;;;;5114778;28;20536;-72
2021/05/28 13:35:49;;;;;;;3.10;2.90;;;;;;;;;;5114347;28;20444;-71
2021/05/28 13:38:16;;;;;;;4.17;3.00;;;;;;;;;;5114911;28;20540;-71
2021/05/28 13:40:44;;;;;;;4.47;3.57;;;;;;;;;;5114347;28;20450;-72
2021/05/28 13:43:14;;;;;;;3.93;3.63;;;;;;;;;;5114801;28;20586;-72
2021/05/28 13:45:40;;;;;;;5.13;3.30;;;;;;;;;;5114685;28;20486;-72
2021/05/28 13:48:07;;;;;;;3.70;3.40;;;;;;;;;;5114921;28;20441;-72
2021/05/28 13:50:35;;;;;;;3.70;3.40;;;;;;;;;;5114545;28;20447;-73
2021/05/28 13:53:03;;;;;;;3.80;3.33;;;;;;;;;;5114243;28;20536;-72
2021/05/28 13:55:30;;;;;;;3.80;3.50;;;;;;;;;;5115007;28;20863;-71
2021/05/28 13:57:57;;;;;;;4.80;3.57;;;;;;;;;;5114331;28;20449;-72
2021/05/28 14:00:25;;;;;;;3.10;2.90;;;;;;;;;;5114747;28;20525;-73
2021/05/28 14:02:52;;;;;;;3.60;3.30;;;;;;;;;;5114148;28;20501;-73
2021/05/28 14:05:19;;;;;;;13.70;9.77;;;;;;;;;;5115091;28;20852;-74
2021/05/28 14:07:46;;;;;;;4.07;2.87;;;;;;;;;;5113978;28;20503;-71
2021/05/28 14:10:13;;;;;;;4.60;4.20;;;;;;;;;;5113872;28;20437;-71
2021/05/28 14:12:40;;;;;;;5.57;3.57;;;;;;;;;;5113799;28;20444;-71
2021/05/28 14:15:08;;;;;;;4.03;3.73;;;;;;;;;;5113859;28;20530;-74
2021/05/28 14:17:36;;;;;;;3.10;2.80;;;;;;;;;;5114471;28;20435;-73
2021/05/28 14:20:03;;;;;;;3.27;3.00;;;;;;;;;;5114252;28;20433;-73
2021/05/28 14:22:30;;;;;;;3.53;3.30;;;;;;;;;;5119840;27;20497;-72
2021/05/28 14:24:57;;;;;;;3.90;3.60;;;;;;;;;;5118211;27;20480;-72
2021/05/28 14:27:24;;;;;;;3.70;3.40;;;;;;;;;;5123613;27;20971;-72
2021/05/28 14:29:50;;;;;;;3.60;3.30;;;;;;;;;;5134193;27;20443;-72
2021/05/28 14:32:17;;;;;;;4.00;2.80;;;;;;;;;;5134139;28;20529;-73
2021/05/28 14:34:45;;;;;;;3.40;3.10;;;;;;;;;;5140463;27;20475;-72
2021/05/28 14:37:11;;;;;;;4.40;4.00;;;;;;;;;;5140873;27;21043;-72